sensor_id;sensor_type;location;lat;lon;timestamp;P1;durP1;ratioP1;P2;durP2;ratioP2
13457;SDS011;6801;53.018;11.560;2023-05-07T00:02:13;8.50;;;5.82;;
13457;SDS011;6801;53.018;11.560;2023-05-07T00:04:40;8.77;;;5.82;;
13457;SDS011;6801;53.018;11.560;2023-05-07T00:07:07;7.57;;;5.57;;
13457;SDS011;6801;53.018;11.560;2023-05-07T00:09:35;8.82;;;6.38;;
13457;SDS011;6801;53.018;11.560;2023-05-07T00:12:02;10.48;;;6.60;;
13457;SDS011;6801;53.018;11.560;2023-05-07T00:14:31;9.40;;;6.93;;
13457;SDS011;6801;53.018;11.560;2023-05-07T00:16:58;8.48;;;6.10;;
13457;SDS011;6801;53.018;11.560;2023-05-07T00:19:25;8.60;;;5.97;;
13457;SDS011;6801;53.018;11.560;2023-05-07T00:21:52;9.32;;;6.38;;
13457;SDS011;6801;53.018;11.560;2023-05-07T00:24:19;9.20;;;6.50;;
13457;SDS011;6801;53.018;11.560;2023-05-07T00:26:46;9.45;;;5.88;;
13457;SDS011;6801;53.018;11.560;2023-05-07T00:29:13;9.02;;;6.10;;
13457;SDS011;6801;53.018;11.560;2023-05-07T00:31:41;8.25;;;5.75;;
13457;SDS011;6801;53.018;11.560;2023-05-07T00:34:08;10.05;;;6.68;;
13457;SDS011;6801;53.018;11.560;2023-05-07T00:36:35;9.98;;;6.53;;
13457;SDS011;6801;53.018;11.560;2023-05-07T00:39:02;9.48;;;6.45;;
13457;SDS011;6801;53.018;11.560;2023-05-07T00:41:29;9.48;;;6.82;;
13457;SDS011;6801;53.018;11.560;2023-05-07T00:43:56;9.73;;;6.28;;
13457;SDS011;6801;53.018;11.560;2023-05-07T00:46:23;9.88;;;6.15;;
13457;SDS011;6801;53.018;11.560;2023-05-07T00:48:52;11.57;;;7.07;;
13457;SDS011;6801;53.018;11.560;2023-05-07T00:51:20;11.70;;;6.97;;
13457;SDS011;6801;53.018;11.560;2023-05-07T00:53:48;11.00;;;7.50;;
13457;SDS011;6801;53.018;11.560;2023-05-07T00:56:15;10.27;;;6.97;;
13457;SDS011;6801;53.018;11.560;2023-05-07T00:58:42;9.77;;;6.05;;
13457;SDS011;6801;53.018;11.560;2023-05-07T01:01:09;8.77;;;6.85;;
13457;SDS011;6801;53.018;11.560;2023-05-07T01:03:36;10.90;;;6.72;;
13457;SDS011;6801;53.018;11.560;2023-05-07T01:06:05;10.10;;;7.18;;
13457;SDS011;6801;53.018;11.560;2023-05-07T01:08:33;9.10;;;6.38;;
13457;SDS011;6801;53.018;11.560;2023-05-07T01:11:01;8.77;;;5.78;;
13457;SDS011;6801;53.018;11.560;2023-05-07T01:13:29;10.15;;;6.72;;
13457;SDS011;6801;53.018;11.560;2023-05-07T01:15:56;9.70;;;6.20;;
13457;SDS011;6801;53.018;11.560;2023-05-07T01:18:23;9.85;;;6.20;;
13457;SDS011;6801;53.018;11.560;2023-05-07T01:20:51;10.38;;;6.57;;
13457;SDS011;6801;53.018;11.560;2023-05-07T01:23:19;9.02;;;5.32;;
13457;SDS011;6801;53.018;11.560;2023-05-07T01:25:50;9.52;;;6.80;;
13457;SDS011;6801;53.018;11.560;2023-05-07T01:28:18;8.75;;;5.70;;
13457;SDS011;6801;53.018;11.560;2023-05-07T01:30:46;10.43;;;5.78;;
13457;SDS011;6801;53.018;11.560;2023-05-07T01:33:18;8.10;;;5.55;;
13457;SDS011;6801;53.018;11.560;2023-05-07T01:38:16;9.35;;;6.60;;
13457;SDS011;6801;53.018;11.560;2023-05-07T01:40:45;10.10;;;6.78;;
13457;SDS011;6801;53.018;11.560;2023-05-07T01:43:12;11.20;;;7.22;;
13457;SDS011;6801;53.018;11.560;2023-05-07T01:45:40;12.77;;;7.07;;
13457;SDS011;6801;53.018;11.560;2023-05-07T01:48:10;10.02;;;6.65;;
13457;SDS011;6801;53.018;11.560;2023-05-07T01:50:38;10.27;;;6.97;;
13457;SDS011;6801;53.018;11.560;2023-05-07T01:53:06;10.43;;;6.95;;
13457;SDS011;6801;53.018;11.560;2023-05-07T01:55:33;13.45;;;7.53;;
13457;SDS011;6801;53.018;11.560;2023-05-07T01:58:03;10.57;;;6.28;;
13457;SDS011;6801;53.018;11.560;2023-05-07T02:00:30;9.23;;;6.28;;
13457;SDS011;6801;53.018;11.560;2023-05-07T02:02:58;10.65;;;7.40;;
13457;SDS011;6801;53.018;11.560;2023-05-07T02:05:39;12.23;;;7.18;;
13457;SDS011;6801;53.018;11.560;2023-05-07T02:08:12;10.43;;;6.13;;
13457;SDS011;6801;53.018;11.560;2023-05-07T02:10:40;10.15;;;6.70;;
13457;SDS011;6801;53.018;11.560;2023-05-07T02:13:08;10.68;;;6.45;;
13457;SDS011;6801;53.018;11.560;2023-05-07T02:15:35;10.90;;;6.65;;
13457;SDS011;6801;53.018;11.560;2023-05-07T02:18:04;9.15;;;6.68;;
13457;SDS011;6801;53.018;11.560;2023-05-07T02:20:32;11.57;;;6.80;;
13457;SDS011;6801;53.018;11.560;2023-05-07T02:22:59;10.40;;;6.38;;
13457;SDS011;6801;53.018;11.560;2023-05-07T02:25:28;10.30;;;6.07;;
13457;SDS011;6801;53.018;11.560;2023-05-07T02:27:55;12.15;;;7.22;;
13457;SDS011;6801;53.018;11.560;2023-05-07T02:30:33;10.63;;;6.50;;
13457;SDS011;6801;53.018;11.560;2023-05-07T02:33:00;10.88;;;7.78;;
13457;SDS011;6801;53.018;11.560;2023-05-07T02:35:27;9.32;;;6.20;;
13457;SDS011;6801;53.018;11.560;2023-05-07T02:37:54;8.60;;;5.95;;
13457;SDS011;6801;53.018;11.560;2023-05-07T02:40:24;9.85;;;6.85;;
13457;SDS011;6801;53.018;11.560;2023-05-07T02:42:51;9.70;;;6.55;;
13457;SDS011;6801;53.018;11.560;2023-05-07T02:45:17;12.18;;;7.47;;
13457;SDS011;6801;53.018;11.560;2023-05-07T02:47:47;9.32;;;6.35;;
13457;SDS011;6801;53.018;11.560;2023-05-07T02:50:13;9.77;;;6.30;;
13457;SDS011;6801;53.018;11.560;2023-05-07T02:52:41;9.88;;;6.65;;
13457;SDS011;6801;53.018;11.560;2023-05-07T02:55:08;8.35;;;5.32;;
13457;SDS011;6801;53.018;11.560;2023-05-07T02:57:35;8.95;;;5.65;;
13457;SDS011;6801;53.018;11.560;2023-05-07T03:00:10;12.13;;;6.38;;
13457;SDS011;6801;53.018;11.560;2023-05-07T03:02:41;9.10;;;6.15;;
13457;SDS011;6801;53.018;11.560;2023-05-07T03:05:09;10.15;;;6.60;;
13457;SDS011;6801;53.018;11.560;2023-05-07T03:07:37;13.88;;;6.25;;
13457;SDS011;6801;53.018;11.560;2023-05-07T03:10:04;9.02;;;6.70;;
13457;SDS011;6801;53.018;11.560;2023-05-07T03:12:31;9.55;;;6.15;;
13457;SDS011;6801;53.018;11.560;2023-05-07T03:14:58;12.50;;;6.32;;
13457;SDS011;6801;53.018;11.560;2023-05-07T03:17:25;8.15;;;5.97;;
13457;SDS011;6801;53.018;11.560;2023-05-07T03:19:52;9.73;;;6.53;;
13457;SDS011;6801;53.018;11.560;2023-05-07T03:22:21;9.80;;;6.28;;
13457;SDS011;6801;53.018;11.560;2023-05-07T03:24:48;8.27;;;5.97;;
13457;SDS011;6801;53.018;11.560;2023-05-07T03:27:15;9.68;;;6.45;;
13457;SDS011;6801;53.018;11.560;2023-05-07T03:29:43;8.20;;;5.35;;
13457;SDS011;6801;53.018;11.560;2023-05-07T03:32:10;10.45;;;6.63;;
13457;SDS011;6801;53.018;11.560;2023-05-07T03:34:36;11.15;;;6.13;;
13457;SDS011;6801;53.018;11.560;2023-05-07T03:37:04;9.43;;;6.15;;
13457;SDS011;6801;53.018;11.560;2023-05-07T03:39:32;8.38;;;5.35;;
13457;SDS011;6801;53.018;11.560;2023-05-07T03:41:59;9.20;;;5.40;;
13457;SDS011;6801;53.018;11.560;2023-05-07T03:44:28;7.43;;;5.35;;
13457;SDS011;6801;53.018;11.560;2023-05-07T03:46:56;7.65;;;5.28;;
13457;SDS011;6801;53.018;11.560;2023-05-07T03:49:22;9.02;;;5.25;;
13457;SDS011;6801;53.018;11.560;2023-05-07T03:51:49;8.57;;;5.63;;
13457;SDS011;6801;53.018;11.560;2023-05-07T03:54:17;7.93;;;5.20;;
13457;SDS011;6801;53.018;11.560;2023-05-07T03:56:47;8.63;;;6.10;;
13457;SDS011;6801;53.018;11.560;2023-05-07T03:59:14;9.20;;;5.75;;
13457;SDS011;6801;53.018;11.560;2023-05-07T04:01:43;12.65;;;5.60;;
13457;SDS011;6801;53.018;11.560;2023-05-07T04:04:14;8.02;;;4.90;;
13457;SDS011;6801;53.018;11.560;2023-05-07T04:06:41;7.97;;;5.07;;
13457;SDS011;6801;53.018;11.560;2023-05-07T04:09:08;7.70;;;5.57;;
13457;SDS011;6801;53.018;11.560;2023-05-07T04:11:37;8.25;;;5.38;;
13457;SDS011;6801;53.018;11.560;2023-05-07T04:14:08;9.25;;;5.78;;
13457;SDS011;6801;53.018;11.560;2023-05-07T04:16:36;7.60;;;4.60;;
13457;SDS011;6801;53.018;11.560;2023-05-07T04:19:03;8.10;;;5.20;;
13457;SDS011;6801;53.018;11.560;2023-05-07T04:21:31;8.18;;;5.85;;
13457;SDS011;6801;53.018;11.560;2023-05-07T04:23:58;8.95;;;5.63;;
13457;SDS011;6801;53.018;11.560;2023-05-07T04:26:25;9.18;;;5.90;;
13457;SDS011;6801;53.018;11.560;2023-05-07T04:28:52;7.28;;;5.53;;
13457;SDS011;6801;53.018;11.560;2023-05-07T04:31:21;7.82;;;5.95;;
13457;SDS011;6801;53.018;11.560;2023-05-07T04:33:51;9.50;;;5.53;;
13457;SDS011;6801;53.018;11.560;2023-05-07T04:36:19;9.15;;;5.28;;
13457;SDS011;6801;53.018;11.560;2023-05-07T04:38:51;9.32;;;5.28;;
13457;SDS011;6801;53.018;11.560;2023-05-07T04:41:19;6.60;;;4.82;;
13457;SDS011;6801;53.018;11.560;2023-05-07T04:43:46;10.27;;;5.65;;
13457;SDS011;6801;53.018;11.560;2023-05-07T04:46:14;7.40;;;4.78;;
13457;SDS011;6801;53.018;11.560;2023-05-07T04:48:43;9.00;;;5.60;;
13457;SDS011;6801;53.018;11.560;2023-05-07T04:51:10;9.00;;;6.03;;
13457;SDS011;6801;53.018;11.560;2023-05-07T04:53:37;6.70;;;5.35;;
13457;SDS011;6801;53.018;11.560;2023-05-07T04:56:04;7.90;;;5.30;;
13457;SDS011;6801;53.018;11.560;2023-05-07T04:58:38;6.63;;;5.20;;
13457;SDS011;6801;53.018;11.560;2023-05-07T05:01:06;5.85;;;4.63;;
13457;SDS011;6801;53.018;11.560;2023-05-07T05:03:33;7.78;;;4.68;;
13457;SDS011;6801;53.018;11.560;2023-05-07T05:06:01;7.47;;;4.97;;
13457;SDS011;6801;53.018;11.560;2023-05-07T05:08:32;7.78;;;5.43;;
13457;SDS011;6801;53.018;11.560;2023-05-07T05:11:01;9.18;;;5.57;;
13457;SDS011;6801;53.018;11.560;2023-05-07T05:13:30;8.75;;;5.93;;
13457;SDS011;6801;53.018;11.560;2023-05-07T05:15:58;9.55;;;6.28;;
13457;SDS011;6801;53.018;11.560;2023-05-07T05:18:27;13.68;;;9.60;;
13457;SDS011;6801;53.018;11.560;2023-05-07T05:20:54;13.55;;;7.40;;
13457;SDS011;6801;53.018;11.560;2023-05-07T05:23:24;6.88;;;4.80;;
13457;SDS011;6801;53.018;11.560;2023-05-07T05:25:54;8.65;;;5.40;;
13457;SDS011;6801;53.018;11.560;2023-05-07T05:28:24;10.63;;;5.72;;
13457;SDS011;6801;53.018;11.560;2023-05-07T05:30:52;7.65;;;5.75;;
13457;SDS011;6801;53.018;11.560;2023-05-07T05:33:21;7.38;;;5.43;;
13457;SDS011;6801;53.018;11.560;2023-05-07T05:35:49;8.25;;;5.40;;
13457;SDS011;6801;53.018;11.560;2023-05-07T05:38:16;9.38;;;6.10;;
13457;SDS011;6801;53.018;11.560;2023-05-07T05:40:44;7.38;;;5.10;;
13457;SDS011;6801;53.018;11.560;2023-05-07T05:43:11;7.38;;;5.25;;
13457;SDS011;6801;53.018;11.560;2023-05-07T05:45:38;9.88;;;5.57;;
13457;SDS011;6801;53.018;11.560;2023-05-07T05:48:05;7.82;;;5.13;;
13457;SDS011;6801;53.018;11.560;2023-05-07T05:50:33;6.53;;;4.78;;
13457;SDS011;6801;53.018;11.560;2023-05-07T05:53:01;9.52;;;5.07;;
13457;SDS011;6801;53.018;11.560;2023-05-07T05:55:29;8.15;;;5.50;;
13457;SDS011;6801;53.018;11.560;2023-05-07T05:57:59;7.65;;;5.38;;
13457;SDS011;6801;53.018;11.560;2023-05-07T06:00:28;7.57;;;5.65;;
13457;SDS011;6801;53.018;11.560;2023-05-07T06:03:01;11.25;;;5.63;;
13457;SDS011;6801;53.018;11.560;2023-05-07T06:05:28;8.68;;;5.70;;
13457;SDS011;6801;53.018;11.560;2023-05-07T06:07:56;10.32;;;4.95;;
13457;SDS011;6801;53.018;11.560;2023-05-07T06:10:25;6.80;;;4.93;;
13457;SDS011;6801;53.018;11.560;2023-05-07T06:12:53;9.25;;;5.05;;
13457;SDS011;6801;53.018;11.560;2023-05-07T06:15:22;6.90;;;5.10;;
13457;SDS011;6801;53.018;11.560;2023-05-07T06:17:49;8.45;;;5.00;;
13457;SDS011;6801;53.018;11.560;2023-05-07T06:20:17;8.13;;;5.30;;
13457;SDS011;6801;53.018;11.560;2023-05-07T06:22:44;6.78;;;5.60;;
13457;SDS011;6801;53.018;11.560;2023-05-07T06:25:12;6.90;;;5.32;;
13457;SDS011;6801;53.018;11.560;2023-05-07T06:27:39;7.88;;;5.15;;
13457;SDS011;6801;53.018;11.560;2023-05-07T06:30:07;8.43;;;5.13;;
13457;SDS011;6801;53.018;11.560;2023-05-07T06:32:36;6.63;;;4.47;;
13457;SDS011;6801;53.018;11.560;2023-05-07T06:35:04;6.07;;;3.80;;
13457;SDS011;6801;53.018;11.560;2023-05-07T06:37:34;9.38;;;5.38;;
13457;SDS011;6801;53.018;11.560;2023-05-07T06:40:04;11.13;;;5.30;;
13457;SDS011;6801;53.018;11.560;2023-05-07T06:42:35;6.50;;;4.38;;
13457;SDS011;6801;53.018;11.560;2023-05-07T06:45:20;8.07;;;5.32;;
13457;SDS011;6801;53.018;11.560;2023-05-07T06:47:49;10.10;;;4.95;;
13457;SDS011;6801;53.018;11.560;2023-05-07T06:50:16;10.68;;;4.93;;
13457;SDS011;6801;53.018;11.560;2023-05-07T06:52:44;6.60;;;4.80;;
13457;SDS011;6801;53.018;11.560;2023-05-07T06:55:11;7.82;;;5.15;;
13457;SDS011;6801;53.018;11.560;2023-05-07T06:57:38;7.03;;;4.93;;
13457;SDS011;6801;53.018;11.560;2023-05-07T07:00:05;6.93;;;5.25;;
13457;SDS011;6801;53.018;11.560;2023-05-07T07:02:41;7.93;;;4.65;;
13457;SDS011;6801;53.018;11.560;2023-05-07T07:05:11;9.55;;;5.57;;
13457;SDS011;6801;53.018;11.560;2023-05-07T07:07:38;8.00;;;5.50;;
13457;SDS011;6801;53.018;11.560;2023-05-07T07:10:06;7.22;;;5.07;;
13457;SDS011;6801;53.018;11.560;2023-05-07T07:12:34;8.27;;;5.28;;
13457;SDS011;6801;53.018;11.560;2023-05-07T07:15:02;6.57;;;4.82;;
13457;SDS011;6801;53.018;11.560;2023-05-07T07:17:29;7.18;;;4.90;;
13457;SDS011;6801;53.018;11.560;2023-05-07T07:19:56;9.07;;;4.40;;
13457;SDS011;6801;53.018;11.560;2023-05-07T07:22:24;6.22;;;4.35;;
13457;SDS011;6801;53.018;11.560;2023-05-07T07:24:51;6.97;;;4.70;;
13457;SDS011;6801;53.018;11.560;2023-05-07T07:27:19;7.93;;;4.97;;
13457;SDS011;6801;53.018;11.560;2023-05-07T07:29:46;7.90;;;5.55;;
13457;SDS011;6801;53.018;11.560;2023-05-07T07:32:12;6.90;;;4.50;;
13457;SDS011;6801;53.018;11.560;2023-05-07T07:34:40;6.40;;;4.55;;
13457;SDS011;6801;53.018;11.560;2023-05-07T07:37:08;6.93;;;4.78;;
13457;SDS011;6801;53.018;11.560;2023-05-07T07:39:37;6.75;;;4.30;;
13457;SDS011;6801;53.018;11.560;2023-05-07T07:42:06;10.75;;;6.25;;
13457;SDS011;6801;53.018;11.560;2023-05-07T07:44:33;9.73;;;5.72;;
13457;SDS011;6801;53.018;11.560;2023-05-07T07:47:07;7.32;;;4.68;;
13457;SDS011;6801;53.018;11.560;2023-05-07T07:49:34;5.78;;;4.18;;
13457;SDS011;6801;53.018;11.560;2023-05-07T07:52:04;6.30;;;4.65;;
13457;SDS011;6801;53.018;11.560;2023-05-07T07:54:34;6.68;;;4.07;;
13457;SDS011;6801;53.018;11.560;2023-05-07T07:57:03;4.40;;;3.28;;
13457;SDS011;6801;53.018;11.560;2023-05-07T07:59:32;4.88;;;3.25;;
13457;SDS011;6801;53.018;11.560;2023-05-07T08:01:59;5.57;;;2.80;;
13457;SDS011;6801;53.018;11.560;2023-05-07T08:04:28;6.90;;;3.70;;
13457;SDS011;6801;53.018;11.560;2023-05-07T08:06:57;4.97;;;3.50;;
13457;SDS011;6801;53.018;11.560;2023-05-07T08:09:24;5.32;;;3.13;;
13457;SDS011;6801;53.018;11.560;2023-05-07T08:11:53;4.53;;;3.00;;
13457;SDS011;6801;53.018;11.560;2023-05-07T08:14:21;3.85;;;2.63;;
13457;SDS011;6801;53.018;11.560;2023-05-07T08:16:48;4.18;;;2.58;;
13457;SDS011;6801;53.018;11.560;2023-05-07T08:19:15;5.80;;;2.72;;
13457;SDS011;6801;53.018;11.560;2023-05-07T08:21:43;8.35;;;3.28;;
13457;SDS011;6801;53.018;11.560;2023-05-07T08:24:13;6.20;;;3.17;;
13457;SDS011;6801;53.018;11.560;2023-05-07T08:26:40;5.47;;;2.78;;
13457;SDS011;6801;53.018;11.560;2023-05-07T08:29:09;4.72;;;2.50;;
13457;SDS011;6801;53.018;11.560;2023-05-07T08:31:37;3.17;;;1.92;;
13457;SDS011;6801;53.018;11.560;2023-05-07T08:34:05;4.93;;;2.70;;
13457;SDS011;6801;53.018;11.560;2023-05-07T08:36:33;5.95;;;2.85;;
13457;SDS011;6801;53.018;11.560;2023-05-07T08:39:00;4.63;;;2.63;;
13457;SDS011;6801;53.018;11.560;2023-05-07T08:41:27;3.17;;;2.22;;
13457;SDS011;6801;53.018;11.560;2023-05-07T08:43:55;4.78;;;2.10;;
13457;SDS011;6801;53.018;11.560;2023-05-07T08:46:25;3.88;;;2.25;;
13457;SDS011;6801;53.018;11.560;2023-05-07T08:48:59;4.28;;;2.28;;
13457;SDS011;6801;53.018;11.560;2023-05-07T08:51:26;3.13;;;2.40;;
13457;SDS011;6801;53.018;11.560;2023-05-07T08:53:54;4.80;;;2.42;;
13457;SDS011;6801;53.018;11.560;2023-05-07T08:56:25;3.85;;;2.40;;
13457;SDS011;6801;53.018;11.560;2023-05-07T08:58:53;3.60;;;2.35;;
13457;SDS011;6801;53.018;11.560;2023-05-07T09:01:22;3.97;;;2.28;;
13457;SDS011;6801;53.018;11.560;2023-05-07T09:03:51;2.88;;;2.00;;
13457;SDS011;6801;53.018;11.560;2023-05-07T09:06:21;3.38;;;2.10;;
13457;SDS011;6801;53.018;11.560;2023-05-07T09:08:49;4.15;;;2.63;;
13457;SDS011;6801;53.018;11.560;2023-05-07T09:11:19;3.33;;;2.33;;
13457;SDS011;6801;53.018;11.560;2023-05-07T09:16:15;5.97;;;2.58;;
13457;SDS011;6801;53.018;11.560;2023-05-07T09:18:44;4.40;;;2.20;;
13457;SDS011;6801;53.018;11.560;2023-05-07T09:21:14;2.95;;;1.90;;
13457;SDS011;6801;53.018;11.560;2023-05-07T09:23:43;3.28;;;2.28;;
13457;SDS011;6801;53.018;11.560;2023-05-07T09:26:11;4.50;;;2.33;;
13457;SDS011;6801;53.018;11.560;2023-05-07T09:28:40;3.10;;;1.92;;
13457;SDS011;6801;53.018;11.560;2023-05-07T09:31:10;3.00;;;1.75;;
13457;SDS011;6801;53.018;11.560;2023-05-07T09:33:37;2.25;;;1.80;;
13457;SDS011;6801;53.018;11.560;2023-05-07T09:36:05;2.50;;;1.75;;
13457;SDS011;6801;53.018;11.560;2023-05-07T09:38:35;5.17;;;2.30;;
13457;SDS011;6801;53.018;11.560;2023-05-07T09:41:05;2.85;;;1.90;;
13457;SDS011;6801;53.018;11.560;2023-05-07T09:43:41;2.50;;;1.75;;
13457;SDS011;6801;53.018;11.560;2023-05-07T09:46:11;4.47;;;1.73;;
13457;SDS011;6801;53.018;11.560;2023-05-07T09:48:43;3.05;;;1.80;;
13457;SDS011;6801;53.018;11.560;2023-05-07T09:51:15;3.83;;;2.10;;
13457;SDS011;6801;53.018;11.560;2023-05-07T09:53:48;3.00;;;1.80;;
13457;SDS011;6801;53.018;11.560;2023-05-07T09:56:19;2.67;;;1.50;;
13457;SDS011;6801;53.018;11.560;2023-05-07T09:58:48;4.15;;;1.20;;
13457;SDS011;6801;53.018;11.560;2023-05-07T10:01:17;1.92;;;1.27;;
13457;SDS011;6801;53.018;11.560;2023-05-07T10:03:47;3.85;;;1.50;;
13457;SDS011;6801;53.018;11.560;2023-05-07T10:06:16;3.22;;;1.70;;
13457;SDS011;6801;53.018;11.560;2023-05-07T10:08:43;1.60;;;1.40;;
13457;SDS011;6801;53.018;11.560;2023-05-07T10:11:11;2.38;;;1.88;;
13457;SDS011;6801;53.018;11.560;2023-05-07T10:13:40;3.67;;;1.60;;
13457;SDS011;6801;53.018;11.560;2023-05-07T10:16:09;2.60;;;1.80;;
13457;SDS011;6801;53.018;11.560;2023-05-07T10:18:43;2.15;;;1.40;;
13457;SDS011;6801;53.018;11.560;2023-05-07T10:21:17;2.28;;;1.60;;
13457;SDS011;6801;53.018;11.560;2023-05-07T10:23:48;2.78;;;1.75;;
13457;SDS011;6801;53.018;11.560;2023-05-07T10:26:17;5.63;;;2.63;;
13457;SDS011;6801;53.018;11.560;2023-05-07T10:28:49;3.07;;;2.20;;
13457;SDS011;6801;53.018;11.560;2023-05-07T10:31:25;4.28;;;2.20;;
13457;SDS011;6801;53.018;11.560;2023-05-07T10:34:09;4.55;;;1.77;;
13457;SDS011;6801;53.018;11.560;2023-05-07T10:36:39;4.10;;;2.05;;
13457;SDS011;6801;53.018;11.560;2023-05-07T10:39:08;2.63;;;1.90;;
13457;SDS011;6801;53.018;11.560;2023-05-07T10:41:37;4.68;;;2.03;;
13457;SDS011;6801;53.018;11.560;2023-05-07T10:44:07;5.90;;;1.90;;
13457;SDS011;6801;53.018;11.560;2023-05-07T10:46:35;4.07;;;2.03;;
13457;SDS011;6801;53.018;11.560;2023-05-07T10:49:13;4.13;;;2.10;;
13457;SDS011;6801;53.018;11.560;2023-05-07T10:52:11;2.35;;;1.60;;
13457;SDS011;6801;53.018;11.560;2023-05-07T10:54:45;4.32;;;2.20;;
13457;SDS011;6801;53.018;11.560;2023-05-07T10:57:32;3.65;;;1.83;;
13457;SDS011;6801;53.018;11.560;2023-05-07T11:03:17;2.53;;;1.80;;
13457;SDS011;6801;53.018;11.560;2023-05-07T11:06:11;5.45;;;2.53;;
13457;SDS011;6801;53.018;11.560;2023-05-07T11:08:59;5.63;;;2.00;;
13457;SDS011;6801;53.018;11.560;2023-05-07T11:11:46;4.38;;;2.15;;
13457;SDS011;6801;53.018;11.560;2023-05-07T11:14:42;2.65;;;1.92;;
13457;SDS011;6801;53.018;11.560;2023-05-07T11:17:19;3.42;;;2.03;;
13457;SDS011;6801;53.018;11.560;2023-05-07T11:19:53;3.38;;;2.15;;
13457;SDS011;6801;53.018;11.560;2023-05-07T11:22:40;3.47;;;2.08;;
13457;SDS011;6801;53.018;11.560;2023-05-07T11:25:21;4.22;;;2.75;;
13457;SDS011;6801;53.018;11.560;2023-05-07T11:27:55;4.22;;;1.80;;
13457;SDS011;6801;53.018;11.560;2023-05-07T11:30:29;2.67;;;1.73;;
13457;SDS011;6801;53.018;11.560;2023-05-07T11:32:58;3.83;;;2.20;;
13457;SDS011;6801;53.018;11.560;2023-05-07T11:35:25;4.22;;;2.08;;
13457;SDS011;6801;53.018;11.560;2023-05-07T11:37:57;2.60;;;1.70;;
13457;SDS011;6801;53.018;11.560;2023-05-07T11:40:26;3.10;;;2.05;;
13457;SDS011;6801;53.018;11.560;2023-05-07T11:42:53;2.45;;;1.70;;
13457;SDS011;6801;53.018;11.560;2023-05-07T11:45:22;2.80;;;2.10;;
13457;SDS011;6801;53.018;11.560;2023-05-07T11:47:51;5.95;;;2.13;;
13457;SDS011;6801;53.018;11.560;2023-05-07T11:50:19;2.75;;;1.95;;
13457;SDS011;6801;53.018;11.560;2023-05-07T11:52:50;2.72;;;1.80;;
13457;SDS011;6801;53.018;11.560;2023-05-07T11:55:18;12.73;;;1.83;;
13457;SDS011;6801;53.018;11.560;2023-05-07T11:57:45;3.10;;;1.40;;
13457;SDS011;6801;53.018;11.560;2023-05-07T12:00:15;3.05;;;1.67;;
13457;SDS011;6801;53.018;11.560;2023-05-07T12:02:44;5.43;;;1.90;;
13457;SDS011;6801;53.018;11.560;2023-05-07T12:05:11;3.25;;;2.00;;
13457;SDS011;6801;53.018;11.560;2023-05-07T12:07:40;3.47;;;1.73;;
13457;SDS011;6801;53.018;11.560;2023-05-07T12:10:07;1.88;;;1.50;;
13457;SDS011;6801;53.018;11.560;2023-05-07T12:12:38;2.65;;;1.67;;
13457;SDS011;6801;53.018;11.560;2023-05-07T12:15:05;2.95;;;1.48;;
13457;SDS011;6801;53.018;11.560;2023-05-07T12:17:33;2.65;;;1.60;;
13457;SDS011;6801;53.018;11.560;2023-05-07T12:20:00;3.10;;;1.67;;
13457;SDS011;6801;53.018;11.560;2023-05-07T12:22:28;2.65;;;1.73;;
13457;SDS011;6801;53.018;11.560;2023-05-07T12:24:57;2.38;;;1.63;;
13457;SDS011;6801;53.018;11.560;2023-05-07T12:27:25;6.07;;;2.00;;
13457;SDS011;6801;53.018;11.560;2023-05-07T12:29:52;3.20;;;1.33;;
13457;SDS011;6801;53.018;11.560;2023-05-07T12:32:20;4.00;;;1.70;;
13457;SDS011;6801;53.018;11.560;2023-05-07T12:34:49;2.38;;;1.60;;
13457;SDS011;6801;53.018;11.560;2023-05-07T12:37:22;2.95;;;1.42;;
13457;SDS011;6801;53.018;11.560;2023-05-07T12:40:04;2.22;;;1.60;;
13457;SDS011;6801;53.018;11.560;2023-05-07T12:42:32;4.55;;;1.50;;
13457;SDS011;6801;53.018;11.560;2023-05-07T12:45:07;2.33;;;1.50;;
13457;SDS011;6801;53.018;11.560;2023-05-07T12:47:35;2.88;;;1.48;;
13457;SDS011;6801;53.018;11.560;2023-05-07T12:50:04;4.15;;;2.08;;
13457;SDS011;6801;53.018;11.560;2023-05-07T12:52:32;4.72;;;1.38;;
13457;SDS011;6801;53.018;11.560;2023-05-07T12:55:05;5.70;;;1.80;;
13457;SDS011;6801;53.018;11.560;2023-05-07T12:57:37;4.35;;;1.60;;
13457;SDS011;6801;53.018;11.560;2023-05-07T13:00:05;3.00;;;1.70;;
13457;SDS011;6801;53.018;11.560;2023-05-07T13:02:34;4.65;;;1.50;;
13457;SDS011;6801;53.018;11.560;2023-05-07T13:05:04;2.50;;;1.13;;
13457;SDS011;6801;53.018;11.560;2023-05-07T13:07:31;2.58;;;1.60;;
13457;SDS011;6801;53.018;11.560;2023-05-07T13:09:58;3.00;;;1.48;;
13457;SDS011;6801;53.018;11.560;2023-05-07T13:12:26;2.47;;;1.13;;
13457;SDS011;6801;53.018;11.560;2023-05-07T13:14:53;2.42;;;1.48;;
13457;SDS011;6801;53.018;11.560;2023-05-07T13:17:20;1.42;;;1.33;;
13457;SDS011;6801;53.018;11.560;2023-05-07T13:19:47;3.83;;;1.50;;
13457;SDS011;6801;53.018;11.560;2023-05-07T13:22:15;1.80;;;1.20;;
13457;SDS011;6801;53.018;11.560;2023-05-07T13:24:42;3.00;;;1.55;;
13457;SDS011;6801;53.018;11.560;2023-05-07T13:27:09;2.08;;;1.30;;
13457;SDS011;6801;53.018;11.560;2023-05-07T13:29:37;4.97;;;1.80;;
13457;SDS011;6801;53.018;11.560;2023-05-07T13:32:04;2.65;;;1.45;;
13457;SDS011;6801;53.018;11.560;2023-05-07T13:34:31;2.95;;;1.33;;
13457;SDS011;6801;53.018;11.560;2023-05-07T13:36:58;2.47;;;1.42;;
13457;SDS011;6801;53.018;11.560;2023-05-07T13:39:25;4.63;;;1.70;;
13457;SDS011;6801;53.018;11.560;2023-05-07T13:41:52;3.28;;;1.40;;
13457;SDS011;6801;53.018;11.560;2023-05-07T13:44:19;5.15;;;1.83;;
13457;SDS011;6801;53.018;11.560;2023-05-07T13:46:47;6.15;;;1.65;;
13457;SDS011;6801;53.018;11.560;2023-05-07T13:49:14;2.65;;;1.50;;
13457;SDS011;6801;53.018;11.560;2023-05-07T13:51:41;3.38;;;1.65;;
13457;SDS011;6801;53.018;11.560;2023-05-07T13:54:08;2.72;;;1.73;;
13457;SDS011;6801;53.018;11.560;2023-05-07T13:56:35;3.10;;;1.30;;
13457;SDS011;6801;53.018;11.560;2023-05-07T13:59:02;5.53;;;1.40;;
13457;SDS011;6801;53.018;11.560;2023-05-07T14:01:28;2.00;;;1.42;;
13457;SDS011;6801;53.018;11.560;2023-05-07T14:03:57;3.25;;;1.40;;
13457;SDS011;6801;53.018;11.560;2023-05-07T14:06:24;3.53;;;1.50;;
13457;SDS011;6801;53.018;11.560;2023-05-07T14:08:51;2.40;;;1.35;;
13457;SDS011;6801;53.018;11.560;2023-05-07T14:11:18;4.45;;;1.60;;
13457;SDS011;6801;53.018;11.560;2023-05-07T14:13:45;6.25;;;1.60;;
13457;SDS011;6801;53.018;11.560;2023-05-07T14:16:13;22.27;;;1.88;;
13457;SDS011;6801;53.018;11.560;2023-05-07T14:18:40;4.10;;;1.60;;
13457;SDS011;6801;53.018;11.560;2023-05-07T14:21:08;3.50;;;1.42;;
13457;SDS011;6801;53.018;11.560;2023-05-07T14:23:35;4.53;;;1.80;;
13457;SDS011;6801;53.018;11.560;2023-05-07T14:26:02;4.22;;;1.83;;
13457;SDS011;6801;53.018;11.560;2023-05-07T14:28:29;3.97;;;1.40;;
13457;SDS011;6801;53.018;11.560;2023-05-07T14:30:56;2.45;;;1.40;;
13457;SDS011;6801;53.018;11.560;2023-05-07T14:33:23;1.55;;;0.93;;
13457;SDS011;6801;53.018;11.560;2023-05-07T14:35:50;1.55;;;1.17;;
13457;SDS011;6801;53.018;11.560;2023-05-07T14:38:18;4.03;;;1.60;;
13457;SDS011;6801;53.018;11.560;2023-05-07T14:40:45;2.42;;;1.30;;
13457;SDS011;6801;53.018;11.560;2023-05-07T14:43:12;2.22;;;1.23;;
13457;SDS011;6801;53.018;11.560;2023-05-07T14:45:39;1.63;;;1.15;;
13457;SDS011;6801;53.018;11.560;2023-05-07T14:48:06;3.63;;;1.60;;
13457;SDS011;6801;53.018;11.560;2023-05-07T14:50:34;2.70;;;1.10;;
13457;SDS011;6801;53.018;11.560;2023-05-07T14:53:01;2.22;;;0.98;;
13457;SDS011;6801;53.018;11.560;2023-05-07T14:55:30;2.70;;;1.33;;
13457;SDS011;6801;53.018;11.560;2023-05-07T14:57:57;3.97;;;1.20;;
13457;SDS011;6801;53.018;11.560;2023-05-07T15:00:24;2.13;;;0.98;;
13457;SDS011;6801;53.018;11.560;2023-05-07T15:02:51;2.05;;;1.00;;
13457;SDS011;6801;53.018;11.560;2023-05-07T15:05:18;2.17;;;1.20;;